Pagrindinis puslapis
METAR-TAF:

METAR-TAF

Oro uostai :

Tarptautinis Federico Fellini oro uostas

Riminis, Italija

platuma: 44-02N, ilguma: 012-37E, Aukštis: 12 m

Dabartinis oras

Ataskaita buvo paskelbta 21 minutes, ne 19:20 UTC
Vėjas 8 kt iš Šiaurės Rytų
Temperatūra 20°C
Drėgmė 53%
Slėgis 1021 hPa
Matomumas 10 km arba daugiau
nėra debesų žemiau 1500 m ir nėra kamuolinių lietaus debesų

METAR: LIPR 191920Z 04008KT CAVOK 20/10 Q1021

Laikas: 21:41 (19:41 UTC)

Prognozė

Ataskaita buvo paskelbta 2 valandos ir 41 minutes, ne 17:00 UTC
Prognozė galioja nuo 19 metu 18 UTC su 20 metu 03 UTC
Vėjas 8 kt iš Šiaurės/Šiaurės Rytų
Matomumas: 8000 m
Išsisklaidę debesys ne aukštis 2000 ft

TAF: LIPR 191700Z 1918/2003 02008KT 8000 SCT020

Orai ataskaitas ir orų prognozės (METAR, TAF).

turimą stotys yra geltonos ir raudonos taškus žemėlapyje.

Perkelti pele per norėdami pamatyti stoties vardą.

Tada spustelėkite, norėdami matyti oro stebėjimo ir prognozės.

Norėdami pakeisti žemėlapį: spustelėkite ant žalios mygtukų su juodo kryžiaus žemyn,; žalią mygtuką su brūkšneliu, jei norite nutolinti; arba žalių rodyklių gretimoms žemėlapius.


METAR-TAF: